Date,TemperatureHighF,TemperatureAvgF,TemperatureLowF,DewpointHighF,DewpointAvgF,DewpointLowF,HumidityHigh,HumidityAvg,HumidityLow,PressureMaxIn,PressureMinIn,WindSpeedMaxMPH,WindSpeedAvgMPH,GustSpeedMaxMPH,PrecipitationSumIn
2012-11-6,42,37,34,28,25,22,66,63,57,29.56,29.44,12,3,12,0.15
2012-11-7,40,36,32,30,26,21,77,66,60,29.45,29.25,29,8,29,0.00
2012-11-8,48,41,37,27,22,13,61,47,27,29.42,29.22,37,18,37,0.00
2012-11-9,53,42,34,36,29,17,76,61,45,29.64,29.41,27,10,27,0.00
2012-11-10,56,45,33,42,36,27,79,69,53,29.81,29.63,12,2,12,0.00
2012-11-11,66,51,41,48,41,35,83,70,50,29.87,29.77,16,6,16,0.00
2012-11-12,68,55,45,54,47,39,87,75,64,29.86,29.57,25,7,25,0.00
2012-11-13,60,43,38,53,39,32,87,83,77,29.79,29.57,38,16,38,0.57
2012-11-14,75,38,29,30,26,22,76,63,53,29.90,29.22,12,2,12,0.00
2012-11-15,49,36,27,34,27,20,80,70,56,29.84,29.70,15,2,15,0.00
2012-11-16,49,38,32,34,29,25,79,70,56,29.84,29.68,17,3,17,0.00
2012-11-17,62,39,28,35,28,22,80,66,41,30.01,29.78,21,2,21,0.00
2012-11-18,49,40,30,38,33,26,87,76,65,30.01,29.55,16,2,16,0.00
2012-11-19,50,40,32,39,33,23,83,76,67,29.91,29.34,12,3,12,0.00
2012-11-20,51,42,35,40,34,28,83,75,64,29.63,29.52,11,2,11,0.00
2012-11-21,53,39,28,37,30,24,88,73,49,29.64,29.53,14,2,14,0.00
2012-11-22,56,40,27,38,31,21,83,70,51,29.66,29.53,9,1,9,0.00
2012-11-23,57,46,33,38,34,26,82,65,45,29.53,29.16,35,7,35,0.00
2012-11-24,43,36,32,28,21,18,60,55,48,29.32,29.19,40,20,40,0.00
2012-11-25,37,33,29,22,20,18,66,59,54,29.38,29.29,26,11,26,0.00
2012-11-26,47,35,25,30,23,16,75,63,47,29.61,29.35,19,3,19,0.00
2012-11-27,39,34,31,30,28,24,86,80,62,29.61,29.55,15,4,15,0.46
2012-11-28,40,34,29,28,24,18,83,68,54,29.70,29.57,24,6,24,0.04
2012-11-29,43,35,31,28,22,18,68,60,53,29.77,29.68,60,8,60,0.00
2012-11-30,50,37,25,33,26,18,76,66,47,29.75,29.68,12,2,12,0.00
2012-12-1,53,40,34,42,34,27,87,79,65,29.83,29.70,18,4,18,0.00
2012-12-2,49,43,40,44,40,37,93,87,77,29.78,29.51,17,6,17,0.00
2012-12-3,69,55,44,53,47,40,87,74,59,29.67,29.52,12,3,12,0.00
2012-12-4,64,56,50,52,49,45,85,77,67,29.65,29.39,16,6,16,0.00
2012-12-5,60,47,33,50,35,20,76,62,51,29.66,29.37,35,12,35,0.00
2012-12-6,43,32,26,26,20,16,75,62,50,29.73,29.61,15,0,15,0.00
2012-12-7,42,36,28,40,32,20,93,83,72,29.61,29.36,5,0,5,0.07
2012-12-8,50,45,42,44,42,39,95,88,78,29.42,29.27,10,0,10,0.07
2012-12-9,46,43,40,44,41,37,97,92,84,29.60,29.35,17,2,17,0.25
2012-12-10,57,50,41,56,49,40,99,97,93,29.35,28.97,26,1,26,0.05
2012-12-11,52,41,32,50,34,24,94,77,62,29.58,29.05,27,5,27,0.05
2012-12-12,42,34,29,31,26,23,84,73,66,29.79,29.57,11,0,11,0.00